Ana Sayfa
METAR-TAF:

METAR-TAF

Havaalanları :

Luang Namtha, Laos

Enlem: 20-57-38N, Boylam: 101-24-09E, yükseklik: 600 m

Güncel hava durumu gözlemi

Rapor saat 03:00 UTC de 46 dakika önce yapıldı.
Rüzgar batıdan 2 kt
Sıcaklık 19°C
Nem 78%
Basınç 1017 hPa
Görüş mesafesi: 4000 m
2000 ft yükseklikte parçalı bulutlu
10000 ft yükseklikte parçalı bulutlu
Duman

METAR: VLLN 280300Z 27002KT 4000 FU SCT020 SCT100 19/15 Q1017 NOSIG

Saat: 09:16 (03:46 UTC)

Tahmin

Rapor saat 23:00 UTC de 4 saat ve 46 dakika önce yapıldı.
Ayın 28'si saat 00 UTC'den ayın 28'si saat 24 UTC'ye kadar geçerli Tahmin
Rüzgar kuzeybatıdan 4 kt
Görüş mesafesi: 8000 m
2000 ft yükseklikte az bulutlu
10000 ft yükseklikte parçalı bulutlu

TAF: VLLN 272300Z 2800/2824 32004KT 8000 FEW020 SCT100

4.000'den fazla havaalanı için hava durumu gözlemleri ve tahminleri (METAR ve TAF raporları).

Kullanılabilir istasyonlar harita üzerinde sarı ve kırmızı noktalarla gösterilir.

İstasyonun adını görmek için fareyi noktanın üzerinde gezdirin.

Sonrasında hava gözlem ve tahminlerini görmek için tıklayın.

Haritayı değiştirmek için: yaklaştırmak için siyah artı işaretli yeşil düğmeye ve uzaklaştırmak için de eksi işaretli düğmeye hızla tıklayın; bitişik haritalar için yeşil okları kullanın.


METAR-TAF: